Mountain Rest, SC

9:53 PM EST on February 08, 2016 (GMT -0500)
Long Creek Woods | | Change Station
CLOSE
Current Station
Personal Weather Station
Location: Long Creek, SC
Elevation: 1674 ft
Nearby Weather Stations

Elev 1674 ft 34.75 °N, 83.28 °W | Updated 14 seconds ago

Overcast
Overcast
37.6 °F
Feels Like 38 °F
N
2.7
Wind Variable Wind from WNW
Gusts 4.0 mph

Today
High -- | Low -- °F
--% Chance of Precip.
Yesterday
High -- | Low -- °F
Precip. -- in
Pressure 29.73 in
Visibility 10.0 miles
Clouds Overcast 6500 ft
Windchill 38 °F
Dew Point 1 °F
Humidity 21%
Rainfall 0.83 in
Snow Depth Not available.
7:26 AM 6:08 PM
New Moon, 0% visible
METAR KTOC 090235Z AUTO 29004KT 10SM OVC065 05/M04 A2973 RMK AO2 T00531036
Pressure 29.73 in
Visibility 10.0 miles
Clouds Overcast 6500 ft
Windchill 38 °F
Dew Point 1 °F
Humidity 21%
Rainfall 0.83 in
Snow Depth Not available.
7:26 AM 6:08 PM
New Moon, 0% visible
METAR KTOC 090235Z AUTO 29004KT 10SM OVC065 05/M04 A2973 RMK AO2 T00531036

10-Day Weather Forecast

Almanac

Astronomy

Feb. 08, 2016 Rise Set
Actual Time
Civil Twilight
Nautical Twilight
Astronomical Twilight
Moon
Length of Visible Light
Length of Day
Tomorrow will be .
, % of the Moon is Illuminated

Today's Extremes

State Highs State Lows

Community

WunderPhotos

Upload Photos

1,891,527 photos uploaded!

WunderBlog® & News

Nearby

Air Quality

  Air Quality AQ Index Pollutant
Not available.

Snow Depth

Station Depth Elevation

Earthquake Activity

City Distance Mag. Time & Date
Minimum magnitude displayed is 2.5.

Coastal Water Temperatures

Place Temperature

Stations

Nearby Weather Stations

Station Location Temp. Windchill Dew Point Humidity Wind Precip. Elev Updated Type
                   

Watches & Warnings

There are currently no watches in effect.